createdAt,value
2018-02-16T00:01:38.725Z,2.70
2018-02-16T00:04:06.955Z,2.60
2018-02-16T00:06:34.418Z,2.60
2018-02-16T00:09:01.897Z,2.60
2018-02-16T00:11:29.337Z,2.70
2018-02-16T00:13:56.813Z,2.70
2018-02-16T00:16:24.271Z,2.60
2018-02-16T00:18:51.748Z,2.60
2018-02-16T00:21:19.982Z,2.60
2018-02-16T00:23:47.444Z,2.60
2018-02-16T00:26:14.934Z,2.60
2018-02-16T00:28:43.155Z,2.50
2018-02-16T00:31:10.616Z,2.50
2018-02-16T00:33:38.100Z,2.50
2018-02-16T00:36:05.569Z,2.50
2018-02-16T00:38:33.048Z,2.40
2018-02-16T00:41:01.267Z,2.40
2018-02-16T00:43:28.732Z,2.40
2018-02-16T00:45:56.197Z,2.40
2018-02-16T00:48:24.425Z,2.40
2018-02-16T00:50:51.894Z,2.30
2018-02-16T00:53:19.352Z,2.30
2018-02-16T00:55:46.811Z,2.30
2018-02-16T00:58:14.293Z,2.30
2018-02-16T01:00:41.797Z,2.30
2018-02-16T01:03:10.013Z,2.20
2018-02-16T01:05:37.493Z,2.20
2018-02-16T01:08:04.960Z,2.20
2018-02-16T01:10:32.437Z,2.20
2018-02-16T01:12:59.899Z,2.10
2018-02-16T01:15:28.158Z,2.10
2018-02-16T01:17:55.627Z,2.10
2018-02-16T01:20:23.196Z,2.10
2018-02-16T01:22:50.657Z,2.10
2018-02-16T01:25:18.134Z,2.00
2018-02-16T01:27:45.601Z,2.00
2018-02-16T01:30:13.113Z,2.00
2018-02-16T01:32:40.568Z,1.90
2018-02-16T01:35:08.046Z,1.80
2018-02-16T01:37:36.283Z,1.70
2018-02-16T01:40:03.757Z,1.80
2018-02-16T01:42:31.226Z,1.70
2018-02-16T01:44:58.712Z,1.70
2018-02-16T01:47:26.941Z,1.70
2018-02-16T01:50:05.336Z,1.70
2018-02-16T01:52:32.806Z,1.70
2018-02-16T01:55:00.301Z,1.70
2018-02-16T01:57:28.527Z,1.80
2018-02-16T01:59:56.009Z,1.80
2018-02-16T02:02:23.487Z,1.80
2018-02-16T02:04:50.969Z,1.80
2018-02-16T02:07:26.498Z,1.80
2018-02-16T02:09:54.755Z,1.60
2018-02-16T02:12:22.695Z,1.70
2018-02-16T02:14:50.188Z,1.60
2018-02-16T02:17:18.116Z,1.60
2018-02-16T02:19:45.588Z,1.60
2018-02-16T02:22:13.107Z,1.60
2018-02-16T02:24:40.583Z,1.50
2018-02-16T02:27:08.048Z,1.50
2018-02-16T02:29:35.514Z,1.50
2018-02-16T02:32:03.005Z,1.50
2018-02-16T02:34:30.454Z,1.50
2018-02-16T02:36:57.912Z,1.50
2018-02-16T02:39:25.383Z,1.40
2018-02-16T02:41:52.857Z,1.40
2018-02-16T02:44:21.087Z,1.40
2018-02-16T02:46:48.556Z,1.40
2018-02-16T02:49:16.034Z,1.40
2018-02-16T02:51:43.506Z,1.50
2018-02-16T02:54:11.728Z,1.40
2018-02-16T02:56:39.197Z,1.50
2018-02-16T02:59:06.674Z,1.50
2018-02-16T03:01:34.151Z,1.40
2018-02-16T03:04:02.402Z,1.40
2018-02-16T03:06:32.804Z,1.40
2018-02-16T03:09:00.275Z,1.40
2018-02-16T03:11:27.768Z,1.30
2018-02-16T03:13:55.227Z,1.30
2018-02-16T03:16:23.469Z,1.30
2018-02-16T03:18:50.927Z,1.30
2018-02-16T03:21:18.402Z,1.30
2018-02-16T03:23:45.877Z,1.30
2018-02-16T03:26:13.365Z,1.40
2018-02-16T03:28:40.821Z,1.30
2018-02-16T03:31:08.293Z,1.30
2018-02-16T03:33:35.763Z,1.30
2018-02-16T03:36:03.220Z,1.30
2018-02-16T03:38:30.692Z,1.20
2018-02-16T03:40:58.151Z,1.20
2018-02-16T03:43:25.612Z,1.30
2018-02-16T03:45:53.077Z,1.30
2018-02-16T03:48:20.561Z,1.40
2018-02-16T03:50:48.787Z,1.40
2018-02-16T03:53:16.267Z,1.30
2018-02-16T03:55:43.737Z,1.30
2018-02-16T03:58:11.213Z,1.30
2018-02-16T04:00:39.453Z,1.30
2018-02-16T04:03:06.937Z,1.30
2018-02-16T04:05:34.400Z,1.30
2018-02-16T04:08:02.647Z,1.30
2018-02-16T04:10:30.115Z,1.30
2018-02-16T04:12:57.581Z,1.20
2018-02-16T04:15:25.057Z,1.20
2018-02-16T04:17:55.220Z,1.20
2018-02-16T04:20:22.681Z,1.20
2018-02-16T04:22:50.144Z,1.20
2018-02-16T04:25:17.611Z,1.10
2018-02-16T04:27:45.093Z,1.10
2018-02-16T04:30:12.556Z,1.00
2018-02-16T04:32:40.790Z,1.00
2018-02-16T04:35:08.250Z,1.00
2018-02-16T04:37:35.711Z,1.00
2018-02-16T04:40:03.183Z,1.00
2018-02-16T04:42:30.654Z,0.90
2018-02-16T04:44:58.134Z,0.90
2018-02-16T04:47:26.367Z,0.90
2018-02-16T04:49:53.839Z,0.90
2018-02-16T04:52:21.324Z,0.90
2018-02-16T04:54:48.806Z,0.90
2018-02-16T04:57:16.284Z,1.00
2018-02-16T04:59:43.758Z,1.00
2018-02-16T05:02:11.713Z,1.00
2018-02-16T05:04:39.179Z,1.10
2018-02-16T05:07:06.685Z,1.10
2018-02-16T05:09:34.924Z,1.10
2018-02-16T05:12:02.403Z,1.10
2018-02-16T05:14:29.872Z,1.10
2018-02-16T05:16:58.187Z,1.20
2018-02-16T05:19:25.882Z,1.20
2018-02-16T05:21:53.343Z,1.10
2018-02-16T05:24:20.807Z,1.10
2018-02-16T05:26:48.277Z,1.10
2018-02-16T05:29:15.751Z,1.00
2018-02-16T05:31:43.215Z,1.00
2018-02-16T05:34:10.676Z,1.00
2018-02-16T05:36:38.143Z,1.00
2018-02-16T05:39:05.628Z,1.00
2018-02-16T05:41:33.095Z,1.00
2018-02-16T05:44:00.559Z,1.00
2018-02-16T05:46:28.023Z,1.00
2018-02-16T05:48:55.480Z,1.00
2018-02-16T05:51:22.973Z,1.00
2018-02-16T05:53:51.197Z,1.00
2018-02-16T05:56:19.428Z,1.10
2018-02-16T05:58:47.670Z,1.10
2018-02-16T06:01:15.141Z,1.00
2018-02-16T06:03:43.065Z,1.10
2018-02-16T06:06:11.038Z,1.00
2018-02-16T06:08:39.004Z,1.10
2018-02-16T06:11:06.879Z,1.10
2018-02-16T06:13:34.644Z,1.10
2018-02-16T06:16:02.515Z,1.10
2018-02-16T06:18:30.381Z,1.10
2018-02-16T06:24:01.132Z,1.10
2018-02-16T06:26:47.528Z,1.10
2018-02-16T06:29:15.402Z,1.10
2018-02-16T06:34:38.477Z,1.00
2018-02-16T06:37:09.722Z,1.10
2018-02-16T06:39:51.225Z,1.10
2018-02-16T06:42:18.715Z,1.10
2018-02-16T06:44:46.163Z,1.10
2018-02-16T06:47:13.641Z,1.10
2018-02-16T06:49:41.099Z,1.10
2018-02-16T06:52:09.359Z,1.10
2018-02-16T06:54:36.824Z,1.10
2018-02-16T06:57:05.074Z,1.10
2018-02-16T06:59:32.541Z,1.10
2018-02-16T07:02:00.024Z,1.10
2018-02-16T07:04:28.264Z,1.10
2018-02-16T07:06:55.753Z,1.10
2018-02-16T07:09:23.980Z,1.10
2018-02-16T07:11:51.443Z,1.10
2018-02-16T07:14:18.908Z,1.20
2018-02-16T07:16:46.387Z,1.20
2018-02-16T07:19:13.852Z,1.20
2018-02-16T07:21:41.316Z,1.20
2018-02-16T07:24:08.779Z,1.20
2018-02-16T07:26:37.004Z,1.30
2018-02-16T07:29:04.464Z,1.30
2018-02-16T07:31:31.938Z,1.30
2018-02-16T07:33:59.405Z,1.30
2018-02-16T07:36:26.882Z,1.30
2018-02-16T07:38:55.117Z,1.30
2018-02-16T07:41:22.575Z,1.30
2018-02-16T07:43:50.046Z,1.30
2018-02-16T07:46:17.519Z,1.40
2018-02-16T07:48:44.991Z,1.40
2018-02-16T07:51:13.249Z,1.40
2018-02-16T07:53:40.700Z,1.40
2018-02-16T07:56:08.163Z,1.50
2018-02-16T07:58:35.630Z,1.50
2018-02-16T08:01:03.084Z,1.60
2018-02-16T08:03:30.555Z,1.60
2018-02-16T08:05:58.785Z,1.70
2018-02-16T08:08:26.258Z,1.70
2018-02-16T08:10:53.714Z,1.80
2018-02-16T08:13:21.178Z,1.90
2018-02-16T08:15:48.644Z,1.90
2018-02-16T08:18:16.130Z,2.00
2018-02-16T08:20:44.359Z,2.00
2018-02-16T08:23:11.827Z,2.00
2018-02-16T08:25:39.286Z,2.10
2018-02-16T08:28:06.770Z,2.10
2018-02-16T08:30:34.238Z,2.20
2018-02-16T08:33:02.470Z,2.20
2018-02-16T08:35:29.962Z,2.20
2018-02-16T08:37:57.463Z,2.30
2018-02-16T08:40:25.669Z,2.30
2018-02-16T08:42:53.152Z,2.30
2018-02-16T08:45:20.625Z,2.40
2018-02-16T08:47:48.844Z,2.50
2018-02-16T08:50:16.314Z,2.40
2018-02-16T08:52:43.802Z,2.50
2018-02-16T08:55:11.273Z,2.50
2018-02-16T08:57:39.495Z,2.60
2018-02-16T09:00:06.969Z,2.60
2018-02-16T09:02:34.420Z,2.70
2018-02-16T09:05:01.894Z,2.80
2018-02-16T09:07:29.345Z,2.80
2018-02-16T09:09:56.816Z,2.90
2018-02-16T09:12:24.309Z,2.90
2018-02-16T09:14:51.780Z,3.00
2018-02-16T09:17:19.257Z,3.00
2018-02-16T09:19:46.742Z,3.10
2018-02-16T09:22:14.209Z,3.10
2018-02-16T09:24:41.687Z,3.20
2018-02-16T09:27:09.924Z,3.30
2018-02-16T09:29:37.385Z,3.30
2018-02-16T09:32:04.827Z,3.40
2018-02-16T09:34:32.279Z,3.40
2018-02-16T09:36:59.739Z,3.50
2018-02-16T09:39:36.144Z,3.50
2018-02-16T09:42:03.602Z,3.50
2018-02-16T09:44:31.068Z,3.50
2018-02-16T09:46:58.528Z,3.60
2018-02-16T09:49:26.781Z,3.60
2018-02-16T09:51:54.222Z,3.60
2018-02-16T09:54:21.710Z,3.70
2018-02-16T09:56:49.163Z,3.70
2018-02-16T09:59:16.630Z,3.70
2018-02-16T10:01:44.101Z,3.70
2018-02-16T10:04:12.321Z,3.80
2018-02-16T10:06:39.789Z,3.80
2018-02-16T10:09:07.251Z,3.90
2018-02-16T10:11:34.732Z,3.90
2018-02-16T10:14:02.187Z,3.90
2018-02-16T10:16:29.655Z,3.90
2018-02-16T10:18:57.127Z,3.90
2018-02-16T10:21:25.359Z,4.00
2018-02-16T10:23:52.857Z,4.00
2018-02-16T10:26:21.103Z,4.10
2018-02-16T10:28:48.556Z,4.10
2018-02-16T10:31:16.022Z,4.10
2018-02-16T10:33:43.470Z,4.10
2018-02-16T10:36:10.932Z,4.20
2018-02-16T10:38:38.405Z,4.20
2018-02-16T10:41:05.869Z,4.30
2018-02-16T10:43:33.534Z,4.30
2018-02-16T10:46:04.947Z,4.40
2018-02-16T10:48:32.400Z,4.40
2018-02-16T10:50:59.864Z,4.40
2018-02-16T10:53:27.320Z,4.50
2018-02-16T10:55:54.792Z,4.50
2018-02-16T10:58:22.248Z,4.50
2018-02-16T11:00:55.867Z,4.50
2018-02-16T11:03:29.120Z,4.60
2018-02-16T11:05:56.587Z,4.60
2018-02-16T11:08:33.609Z,4.60
2018-02-16T11:11:01.243Z,4.70
2018-02-16T11:13:28.695Z,4.70
2018-02-16T11:15:56.175Z,4.80
2018-02-16T11:18:23.659Z,4.80
2018-02-16T11:20:51.110Z,4.80
2018-02-16T11:23:19.339Z,4.90
2018-02-16T11:25:46.784Z,4.90
2018-02-16T11:28:14.255Z,4.90
2018-02-16T11:30:41.729Z,4.90
2018-02-16T11:33:09.184Z,4.90
2018-02-16T11:35:36.637Z,4.90
2018-02-16T11:38:04.109Z,5.00
2018-02-16T11:40:31.775Z,5.10
2018-02-16T11:42:59.305Z,5.20
2018-02-16T11:45:27.617Z,5.20
2018-02-16T11:47:55.035Z,5.20
2018-02-16T11:50:22.549Z,5.20
2018-02-16T11:52:50.773Z,5.10
2018-02-16T11:55:18.223Z,5.10
2018-02-16T11:57:45.704Z,5.10
2018-02-16T12:00:13.468Z,5.20
2018-02-16T12:02:41.040Z,5.20
2018-02-16T12:05:08.593Z,5.20
2018-02-16T12:07:36.254Z,5.20
2018-02-16T12:10:03.704Z,5.10
2018-02-16T12:12:31.155Z,5.20
2018-02-16T12:14:58.608Z,5.20
2018-02-16T12:17:26.087Z,5.20
2018-02-16T12:19:53.546Z,5.30
2018-02-16T12:22:21.044Z,5.30
2018-02-16T12:24:49.554Z,5.40
2018-02-16T12:27:17.064Z,5.40
2018-02-16T12:29:44.523Z,5.40
2018-02-16T12:32:12.002Z,5.40
2018-02-16T12:34:40.251Z,5.30
2018-02-16T12:37:07.727Z,5.30
2018-02-16T12:39:35.171Z,5.30
2018-02-16T12:42:02.640Z,5.30
2018-02-16T12:44:30.863Z,5.30
2018-02-16T12:46:58.324Z,5.30
2018-02-16T12:49:25.780Z,5.30
2018-02-16T12:51:53.275Z,5.30
2018-02-16T12:54:20.752Z,5.30
2018-02-16T12:56:48.964Z,5.40
2018-02-16T12:59:16.437Z,5.40
2018-02-16T13:01:43.921Z,5.40
2018-02-16T13:04:11.412Z,5.50
2018-02-16T13:06:39.630Z,5.50
2018-02-16T13:09:07.856Z,5.40
2018-02-16T13:11:36.071Z,5.40
2018-02-16T13:14:03.540Z,5.40
2018-02-16T13:16:30.989Z,5.40
2018-02-16T13:18:58.488Z,5.40
2018-02-16T13:24:16.668Z,5.40
2018-02-16T13:26:45.016Z,5.40
2018-02-16T13:29:12.477Z,5.40
2018-02-16T13:31:40.015Z,5.50
2018-02-16T13:34:07.471Z,5.50
2018-02-16T13:36:34.929Z,5.50
2018-02-16T13:39:02.395Z,5.50
2018-02-16T13:41:29.845Z,5.50
2018-02-16T13:43:57.333Z,5.50
2018-02-16T13:46:24.779Z,5.40
2018-02-16T13:48:57.253Z,5.40
2018-02-16T13:51:24.728Z,5.40
2018-02-16T13:53:52.194Z,5.30
2018-02-16T13:56:20.455Z,5.30
2018-02-16T13:58:47.909Z,5.30
2018-02-16T14:01:15.384Z,5.30
2018-02-16T14:03:42.823Z,5.40
2018-02-16T14:06:10.467Z,5.40
2018-02-16T14:08:38.908Z,5.30
2018-02-16T14:11:06.926Z,5.40
2018-02-16T14:13:35.406Z,5.40
2018-02-16T14:16:02.873Z,5.40
2018-02-16T14:18:30.325Z,5.50
2018-02-16T14:20:57.792Z,5.60
2018-02-16T14:23:26.760Z,5.60
2018-02-16T14:25:54.376Z,5.60
2018-02-16T14:28:22.594Z,5.60
2018-02-16T14:30:50.065Z,5.50
2018-02-16T14:33:17.519Z,5.60
2018-02-16T14:35:45.048Z,5.50
2018-02-16T14:38:12.556Z,5.50
2018-02-16T14:40:40.281Z,5.50
2018-02-16T14:43:07.741Z,5.50
2018-02-16T14:45:35.190Z,5.60
2018-02-16T14:48:02.672Z,5.60
2018-02-16T14:50:30.137Z,5.60
2018-02-16T14:52:57.596Z,5.70
2018-02-16T14:55:25.051Z,5.70
2018-02-16T14:57:52.499Z,5.60
2018-02-16T15:00:20.158Z,5.60
2018-02-16T15:02:47.633Z,5.50
2018-02-16T15:05:15.081Z,5.50
2018-02-16T15:07:42.531Z,5.40
2018-02-16T15:10:09.992Z,5.30
2018-02-16T15:12:37.469Z,5.30
2018-02-16T15:15:04.912Z,5.30
2018-02-16T15:17:33.136Z,5.20
2018-02-16T15:20:01.369Z,5.20
2018-02-16T15:22:28.837Z,5.20
2018-02-16T15:24:57.800Z,5.20
2018-02-16T15:27:25.255Z,5.10
2018-02-16T15:29:52.711Z,5.10
2018-02-16T15:32:20.249Z,5.10
2018-02-16T15:34:47.796Z,5.10
2018-02-16T15:37:15.370Z,5.00
2018-02-16T15:39:42.817Z,5.00
2018-02-16T15:42:11.040Z,4.90
2018-02-16T15:44:38.489Z,4.90
2018-02-16T15:47:05.950Z,5.00
2018-02-16T15:49:33.405Z,4.90
2018-02-16T15:52:00.869Z,4.90
2018-02-16T15:54:28.329Z,4.90
2018-02-16T15:56:55.810Z,4.90
2018-02-16T15:59:23.263Z,4.90
2018-02-16T16:01:50.718Z,4.90
2018-02-16T16:04:18.177Z,4.90
2018-02-16T16:06:45.633Z,4.80
2018-02-16T16:09:13.087Z,4.80
2018-02-16T16:11:40.548Z,4.80
2018-02-16T16:14:07.995Z,4.80
2018-02-16T16:16:35.508Z,4.70
2018-02-16T16:19:02.917Z,4.70
2018-02-16T16:21:30.373Z,4.60
2018-02-16T16:23:57.830Z,4.60
2018-02-16T16:26:25.281Z,4.60
2018-02-16T16:28:52.750Z,4.60
2018-02-16T16:31:20.205Z,4.60
2018-02-16T16:33:47.673Z,4.60
2018-02-16T16:36:15.131Z,4.60
2018-02-16T16:38:42.597Z,4.60
2018-02-16T16:41:10.065Z,4.60
2018-02-16T16:43:37.517Z,4.60
2018-02-16T16:46:04.974Z,4.60
2018-02-16T16:48:32.419Z,4.50
2018-02-16T16:50:59.894Z,4.50
2018-02-16T16:53:27.356Z,4.50
2018-02-16T16:55:55.590Z,4.50
2018-02-16T16:58:23.034Z,4.50
2018-02-16T17:00:50.522Z,4.50
2018-02-16T17:03:17.957Z,4.50
2018-02-16T17:05:45.431Z,4.50
2018-02-16T17:08:12.889Z,4.50
2018-02-16T17:10:40.353Z,4.50
2018-02-16T17:13:07.803Z,4.60
2018-02-16T17:15:35.273Z,4.50
2018-02-16T17:18:02.707Z,4.50
2018-02-16T17:20:30.168Z,4.40
2018-02-16T17:22:57.640Z,4.40
2018-02-16T17:25:25.113Z,4.40
2018-02-16T17:27:52.564Z,4.40
2018-02-16T17:30:20.021Z,4.40
2018-02-16T17:32:47.484Z,4.40
2018-02-16T17:35:14.939Z,4.50
2018-02-16T17:37:42.389Z,4.50
2018-02-16T17:40:09.854Z,4.40
2018-02-16T17:42:37.305Z,4.40
2018-02-16T17:45:04.771Z,4.40
2018-02-16T17:47:32.249Z,4.40
2018-02-16T17:49:59.704Z,4.30
2018-02-16T17:52:27.929Z,4.30
2018-02-16T17:54:55.373Z,4.30
2018-02-16T17:57:22.845Z,4.30
2018-02-16T17:59:50.289Z,4.30
2018-02-16T18:02:17.751Z,4.30
2018-02-16T18:04:45.224Z,4.30
2018-02-16T18:07:12.673Z,4.30
2018-02-16T18:09:40.131Z,4.30
2018-02-16T18:12:07.589Z,4.30
2018-02-16T18:14:35.040Z,4.30
2018-02-16T18:17:02.505Z,4.30
2018-02-16T18:19:29.959Z,4.20
2018-02-16T18:21:57.430Z,4.20
2018-02-16T18:24:24.886Z,4.20
2018-02-16T18:26:53.113Z,4.10
2018-02-16T18:29:21.338Z,4.10
2018-02-16T18:31:48.805Z,4.10
2018-02-16T18:34:16.265Z,4.10
2018-02-16T18:36:43.725Z,4.10
2018-02-16T18:39:11.176Z,4.20
2018-02-16T18:41:38.649Z,4.20
2018-02-16T18:44:06.115Z,4.20
2018-02-16T18:46:33.571Z,4.20
2018-02-16T18:49:01.037Z,4.20
2018-02-16T18:51:28.496Z,4.20
2018-02-16T18:53:55.961Z,4.20
2018-02-16T18:56:24.202Z,4.10
2018-02-16T18:58:51.651Z,4.10
2018-02-16T19:01:19.103Z,4.10
2018-02-16T19:03:46.559Z,4.10
2018-02-16T19:06:14.015Z,4.10
2018-02-16T19:08:41.477Z,4.10
2018-02-16T19:11:08.986Z,4.00
2018-02-16T19:13:37.217Z,4.00
2018-02-16T19:16:04.668Z,4.00
2018-02-16T19:18:32.137Z,4.00
2018-02-16T19:20:59.698Z,4.10
2018-02-16T19:23:27.405Z,4.00
2018-02-16T19:25:55.104Z,4.00
2018-02-16T19:28:22.585Z,4.10
2018-02-16T19:30:50.053Z,4.10
2018-02-16T19:33:17.904Z,4.00
2018-02-16T19:35:45.417Z,4.00
2018-02-16T19:38:12.900Z,4.00
2018-02-16T19:40:40.629Z,4.10
2018-02-16T19:43:08.171Z,4.10
2018-02-16T19:45:35.634Z,4.10
2018-02-16T19:48:03.098Z,4.10
2018-02-16T19:50:30.581Z,4.00
2018-02-16T19:52:58.045Z,4.00
2018-02-16T19:55:25.500Z,4.00
2018-02-16T19:57:52.966Z,4.00
2018-02-16T20:00:20.515Z,3.90
2018-02-16T20:02:47.976Z,3.90
2018-02-16T20:05:16.016Z,3.90
2018-02-16T20:07:43.851Z,3.90
2018-02-16T20:10:11.806Z,4.00
2018-02-16T20:12:39.320Z,4.00
2018-02-16T20:15:07.200Z,4.00
2018-02-16T20:17:34.992Z,4.00
2018-02-16T20:20:02.581Z,4.00
2018-02-16T20:22:30.849Z,4.00
2018-02-16T20:24:58.304Z,4.00
2018-02-16T20:27:25.753Z,3.90
2018-02-16T20:29:53.471Z,3.90
2018-02-16T20:32:20.957Z,3.90
2018-02-16T20:34:48.607Z,3.80
2018-02-16T20:37:16.073Z,3.80
2018-02-16T20:39:43.782Z,3.70
2018-02-16T20:42:12.257Z,3.70
2018-02-16T20:44:40.578Z,3.70
2018-02-16T20:47:09.361Z,3.70
2018-02-16T20:49:36.881Z,3.70
2018-02-16T20:52:04.345Z,3.70
2018-02-16T20:54:31.795Z,3.70
2018-02-16T21:05:46.024Z,3.70
2018-02-16T21:08:13.497Z,3.70
2018-02-16T21:10:41.834Z,3.70
2018-02-16T21:13:13.323Z,3.70
2018-02-16T21:15:40.841Z,3.70
2018-02-16T21:18:08.290Z,3.70
2018-02-16T21:20:35.848Z,3.70
2018-02-16T21:23:03.307Z,3.70
2018-02-16T21:25:30.767Z,3.70
2018-02-16T21:28:17.210Z,3.70
2018-02-16T21:30:44.681Z,3.70
2018-02-16T21:33:12.138Z,3.70
2018-02-16T21:35:39.596Z,3.70
2018-02-16T21:38:07.822Z,3.70
2018-02-16T21:40:35.285Z,3.60
2018-02-16T21:43:02.739Z,3.70
2018-02-16T21:45:30.196Z,3.70
2018-02-16T21:47:57.641Z,3.60
2018-02-16T21:50:25.084Z,3.60
2018-02-16T21:52:52.540Z,3.70
2018-02-16T21:55:19.993Z,3.70
2018-02-16T21:57:47.466Z,3.60
2018-02-16T22:00:14.979Z,3.60
2018-02-16T22:02:43.625Z,3.60
2018-02-16T22:05:11.064Z,3.60
2018-02-16T22:07:38.548Z,3.60
2018-02-16T22:10:06.008Z,3.60
2018-02-16T22:12:33.458Z,3.50
2018-02-16T22:15:00.916Z,3.60
2018-02-16T22:17:28.376Z,3.60
2018-02-16T22:19:55.827Z,3.60
2018-02-16T22:22:23.284Z,3.60
2018-02-16T22:24:50.740Z,3.50
2018-02-16T22:27:18.197Z,3.60
2018-02-16T22:29:45.659Z,3.60
2018-02-16T22:32:13.123Z,3.60
2018-02-16T22:34:40.571Z,3.60
2018-02-16T22:37:08.043Z,3.60
2018-02-16T22:39:36.263Z,3.70
2018-02-16T22:42:04.494Z,3.70
2018-02-16T22:44:31.954Z,3.70
2018-02-16T22:46:59.409Z,3.70
2018-02-16T22:49:28.084Z,3.70
2018-02-16T22:51:56.160Z,3.60
2018-02-16T22:54:24.133Z,3.70
2018-02-16T22:56:51.998Z,3.70
2018-02-16T22:59:19.652Z,3.70
2018-02-16T23:04:41.502Z,3.70
2018-02-16T23:07:09.368Z,3.70
2018-02-16T23:09:37.236Z,3.70
2018-02-16T23:12:05.107Z,3.60
2018-02-16T23:14:32.970Z,3.60
2018-02-16T23:17:00.843Z,3.50
2018-02-16T23:19:28.808Z,3.50
2018-02-16T23:21:56.776Z,3.50
2018-02-16T23:24:24.748Z,3.50
2018-02-16T23:26:52.613Z,3.50
2018-02-16T23:29:20.692Z,3.60
2018-02-16T23:31:48.557Z,3.50
2018-02-16T23:34:16.533Z,3.50
2018-02-16T23:36:44.390Z,3.50
2018-02-16T23:39:12.258Z,3.50
2018-02-16T23:41:40.232Z,3.50
2018-02-16T23:44:08.044Z,3.50
2018-02-16T23:46:35.910Z,3.50
2018-02-16T23:49:03.982Z,3.50
2018-02-16T23:51:31.954Z,3.50
2018-02-16T23:53:59.927Z,3.40
2018-02-16T23:56:27.895Z,3.40
2018-02-16T23:58:55.769Z,3.40
